createdAt,value
2023-07-03T00:00:36.653Z,25.16
2023-07-03T00:02:43.083Z,25.15
2023-07-03T00:04:47.624Z,25.12
2023-07-03T00:06:50.757Z,25.09
2023-07-03T00:08:53.256Z,25.04
2023-07-03T00:11:06.293Z,25.03
2023-07-03T00:13:09.369Z,24.98
2023-07-03T00:15:12.506Z,24.94
2023-07-03T00:17:15.148Z,24.90
2023-07-03T00:19:17.665Z,24.88
2023-07-03T00:21:20.347Z,24.85
2023-07-03T00:23:24.000Z,24.82
2023-07-03T00:25:27.171Z,24.78
2023-07-03T00:27:29.628Z,24.76
2023-07-03T00:29:33.733Z,24.75
2023-07-03T00:31:36.687Z,24.69
2023-07-03T00:33:39.181Z,24.67
2023-07-03T00:35:42.278Z,24.64
2023-07-03T00:37:44.869Z,24.61
2023-07-03T00:39:47.486Z,24.59
2023-07-03T00:41:50.697Z,24.55
2023-07-03T00:43:54.548Z,24.53
2023-07-03T00:45:57.033Z,24.50
2023-07-03T00:48:00.219Z,24.44
2023-07-03T00:50:02.943Z,24.41
2023-07-03T00:52:06.796Z,24.38
2023-07-03T00:54:10.213Z,24.32
2023-07-03T00:56:13.682Z,24.31
2023-07-03T00:58:17.058Z,24.26
2023-07-03T01:00:22.604Z,24.22
2023-07-03T01:03:03.639Z,24.18
2023-07-03T01:05:15.953Z,24.13
2023-07-03T01:07:24.713Z,24.09
2023-07-03T01:09:33.824Z,24.05
2023-07-03T01:11:37.955Z,24.00
2023-07-03T01:13:41.607Z,23.96
2023-07-03T01:15:46.438Z,23.92
2023-07-03T01:17:52.521Z,23.88
2023-07-03T01:19:57.162Z,23.86
2023-07-03T01:22:12.069Z,23.82
2023-07-03T01:24:17.328Z,23.77
2023-07-03T01:26:23.218Z,23.73
2023-07-03T01:28:28.493Z,23.69
2023-07-03T01:30:32.456Z,23.67
2023-07-03T01:32:37.146Z,23.63
2023-07-03T01:34:47.060Z,23.58
2023-07-03T01:36:50.791Z,23.55
2023-07-03T01:38:55.710Z,23.52
2023-07-03T01:41:00.643Z,23.46
2023-07-03T01:43:04.177Z,23.43
2023-07-03T01:45:07.454Z,23.39
2023-07-03T01:47:13.750Z,23.36
2023-07-03T01:49:17.618Z,23.32
2023-07-03T01:51:45.460Z,23.28
2023-07-03T01:54:03.223Z,23.24
2023-07-03T01:56:12.509Z,23.20
2023-07-03T01:58:57.143Z,23.16
2023-07-03T02:01:07.026Z,23.10
2023-07-03T02:03:49.351Z,23.07
2023-07-03T02:05:55.519Z,23.02
2023-07-03T02:08:01.535Z,22.98
2023-07-03T02:10:04.620Z,22.94
2023-07-03T02:12:08.407Z,22.90
2023-07-03T02:14:11.694Z,22.86
2023-07-03T02:16:17.261Z,22.83
2023-07-03T02:18:22.463Z,22.80
2023-07-03T02:20:25.021Z,22.76
2023-07-03T02:22:27.494Z,22.73
2023-07-03T02:24:30.058Z,22.69
2023-07-03T02:26:32.672Z,22.66
2023-07-03T02:28:36.170Z,22.62
2023-07-03T02:30:38.803Z,22.60
2023-07-03T02:32:42.477Z,22.56
2023-07-03T02:34:45.047Z,22.56
2023-07-03T02:36:47.662Z,22.49
2023-07-03T02:38:50.197Z,22.47
2023-07-03T02:40:52.714Z,22.43
2023-07-03T02:42:55.165Z,22.42
2023-07-03T02:44:59.072Z,22.39
2023-07-03T02:47:01.786Z,22.35
2023-07-03T02:49:04.985Z,22.31
2023-07-03T02:51:07.621Z,22.27
2023-07-03T02:53:10.610Z,22.25
2023-07-03T02:55:14.099Z,22.23
2023-07-03T02:57:16.650Z,22.19
2023-07-03T02:59:19.213Z,22.19
2023-07-03T03:01:22.030Z,22.15
2023-07-03T03:03:25.094Z,22.11
2023-07-03T03:05:27.711Z,22.07
2023-07-03T03:07:30.220Z,22.00
2023-07-03T03:09:32.722Z,21.94
2023-07-03T03:11:35.193Z,21.91
2023-07-03T03:13:37.720Z,21.89
2023-07-03T03:15:40.200Z,21.85
2023-07-03T03:17:42.748Z,21.81
2023-07-03T03:19:45.835Z,21.77
2023-07-03T03:21:51.484Z,21.72
2023-07-03T03:23:53.962Z,21.68
2023-07-03T03:25:56.456Z,21.62
2023-07-03T03:27:59.865Z,21.62
2023-07-03T03:30:02.361Z,21.58
2023-07-03T03:32:05.951Z,21.55
2023-07-03T03:34:08.467Z,21.51
2023-07-03T03:36:10.928Z,21.49
2023-07-03T03:38:13.586Z,21.47
2023-07-03T03:40:16.278Z,21.40
2023-07-03T03:42:18.821Z,21.37
2023-07-03T03:44:21.286Z,21.32
2023-07-03T03:46:23.884Z,21.30
2023-07-03T03:48:28.441Z,21.28
2023-07-03T03:50:31.188Z,21.25
2023-07-03T03:52:33.672Z,21.22
2023-07-03T03:54:36.194Z,21.22
2023-07-03T03:56:38.701Z,21.20
2023-07-03T03:58:41.178Z,21.17
2023-07-03T04:00:44.680Z,21.13
2023-07-03T04:02:48.392Z,21.11
2023-07-03T04:04:50.979Z,21.10
2023-07-03T04:06:54.073Z,21.05
2023-07-03T04:09:00.235Z,21.04
2023-07-03T04:11:02.800Z,21.00
2023-07-03T04:13:05.304Z,20.98
2023-07-03T04:15:08.668Z,20.93
2023-07-03T04:17:11.236Z,20.93
2023-07-03T04:19:13.862Z,20.90
2023-07-03T04:21:18.845Z,20.85
2023-07-03T04:23:25.194Z,20.83
2023-07-03T04:25:27.832Z,20.80
2023-07-03T04:27:30.322Z,20.77
2023-07-03T04:29:32.820Z,20.74
2023-07-03T04:31:36.093Z,20.74
2023-07-03T04:33:38.584Z,20.71
2023-07-03T04:35:41.350Z,20.68
2023-07-03T04:37:43.980Z,20.67
2023-07-03T04:39:46.469Z,20.65
2023-07-03T04:41:49.038Z,20.62
2023-07-03T04:43:58.874Z,20.60
2023-07-03T04:46:05.404Z,20.56
2023-07-03T04:48:08.438Z,20.53
2023-07-03T04:50:17.805Z,20.51
2023-07-03T04:52:21.297Z,20.47
2023-07-03T04:54:29.336Z,20.45
2023-07-03T04:56:35.277Z,20.41
2023-07-03T04:58:39.642Z,20.39
2023-07-03T05:00:42.460Z,20.36
2023-07-03T05:02:46.585Z,20.34
2023-07-03T05:04:49.194Z,20.31
2023-07-03T05:06:52.605Z,20.29
2023-07-03T05:08:55.201Z,20.27
2023-07-03T05:10:57.701Z,20.25
2023-07-03T05:13:00.284Z,20.23
2023-07-03T05:15:04.680Z,20.21
2023-07-03T05:17:07.154Z,20.17
2023-07-03T05:19:09.686Z,20.14
2023-07-03T05:21:12.989Z,20.14
2023-07-03T05:23:16.986Z,20.12
2023-07-03T05:25:20.436Z,20.09
2023-07-03T05:27:23.061Z,20.07
2023-07-03T05:29:25.565Z,20.04
2023-07-03T05:31:28.205Z,20.01
2023-07-03T05:33:31.957Z,19.99
2023-07-03T05:35:40.230Z,19.98
2023-07-03T05:37:47.965Z,19.95
2023-07-03T05:39:50.903Z,19.94
2023-07-03T05:41:53.481Z,19.91
2023-07-03T05:43:55.955Z,19.88
2023-07-03T05:45:58.512Z,19.86
2023-07-03T05:48:01.401Z,19.83
2023-07-03T05:50:04.624Z,19.81
2023-07-03T05:52:07.377Z,19.80
2023-07-03T05:54:09.856Z,19.78
2023-07-03T05:56:12.354Z,19.74
2023-07-03T05:58:14.805Z,19.73
2023-07-03T06:00:18.028Z,19.71
2023-07-03T06:02:21.496Z,19.69
2023-07-03T06:04:24.646Z,19.69
2023-07-03T06:06:27.101Z,19.65
2023-07-03T06:08:29.609Z,19.63
2023-07-03T06:10:32.145Z,19.62
2023-07-03T06:12:35.064Z,19.59
2023-07-03T06:14:37.604Z,19.57
2023-07-03T06:16:40.702Z,19.54
2023-07-03T06:18:43.262Z,19.52
2023-07-03T06:20:45.813Z,19.53
2023-07-03T06:22:48.338Z,19.51
2023-07-03T06:24:51.026Z,19.49
2023-07-03T06:26:54.055Z,19.47
2023-07-03T06:28:56.605Z,19.48
2023-07-03T06:30:59.109Z,19.46
2023-07-03T06:33:01.710Z,19.42
2023-07-03T06:35:08.300Z,19.40
2023-07-03T06:37:11.069Z,19.39
2023-07-03T06:39:14.035Z,19.34
2023-07-03T06:41:16.562Z,19.35
2023-07-03T06:43:19.110Z,19.32
2023-07-03T06:45:21.575Z,19.30
2023-07-03T06:47:24.224Z,19.28
2023-07-03T06:49:27.230Z,19.28
2023-07-03T06:51:30.615Z,19.25
2023-07-03T06:53:33.515Z,19.23
2023-07-03T06:55:35.977Z,19.22
2023-07-03T06:57:38.574Z,19.19
2023-07-03T06:59:41.135Z,19.18
2023-07-03T07:01:43.702Z,19.16
2023-07-03T07:03:46.582Z,19.18
2023-07-03T07:05:49.629Z,19.14
2023-07-03T07:07:52.472Z,19.12
2023-07-03T07:09:55.129Z,19.09
2023-07-03T07:11:57.569Z,19.07
2023-07-03T07:14:01.665Z,19.04
2023-07-03T07:16:04.255Z,19.04
2023-07-03T07:18:08.857Z,19.03
2023-07-03T07:20:11.812Z,19.01
2023-07-03T07:22:17.545Z,18.96
2023-07-03T07:24:22.219Z,18.95
2023-07-03T07:26:35.383Z,18.94
2023-07-03T07:28:37.988Z,18.95
2023-07-03T07:30:40.471Z,18.91
2023-07-03T07:32:43.022Z,18.90
2023-07-03T07:34:45.534Z,18.90
2023-07-03T07:36:48.017Z,18.89
2023-07-03T07:38:52.100Z,18.87
2023-07-03T07:41:03.830Z,18.86
2023-07-03T07:43:06.745Z,18.83
2023-07-03T07:45:09.679Z,18.82
2023-07-03T07:47:12.675Z,18.81
2023-07-03T07:49:15.198Z,18.78
2023-07-03T07:51:17.756Z,18.77
2023-07-03T07:53:20.751Z,18.75
2023-07-03T07:55:23.250Z,18.75
2023-07-03T07:57:27.082Z,18.72
2023-07-03T07:59:29.657Z,18.73
2023-07-03T08:01:32.790Z,18.73
2023-07-03T08:03:35.498Z,18.70
2023-07-03T08:05:38.872Z,18.70
2023-07-03T08:07:41.343Z,18.70
2023-07-03T08:09:44.354Z,18.70
2023-07-03T08:11:46.873Z,18.68
2023-07-03T08:13:49.530Z,18.64
2023-07-03T08:15:53.083Z,18.64
2023-07-03T08:17:56.120Z,18.62
2023-07-03T08:19:58.625Z,18.63
2023-07-03T08:22:01.208Z,18.63
2023-07-03T08:24:04.979Z,18.66
2023-07-03T08:26:08.414Z,18.63
2023-07-03T08:28:11.766Z,18.63
2023-07-03T08:30:15.208Z,18.64
2023-07-03T08:32:17.734Z,18.65
2023-07-03T08:34:20.230Z,18.63
2023-07-03T08:38:29.236Z,18.63
2023-07-03T08:40:31.911Z,18.65
2023-07-03T08:42:57.105Z,18.63
2023-07-03T08:45:00.033Z,18.62
2023-07-03T08:47:11.329Z,18.64
2023-07-03T08:49:16.839Z,18.66
2023-07-03T08:51:23.701Z,18.65
2023-07-03T08:53:31.787Z,18.63
2023-07-03T08:55:44.436Z,18.65
2023-07-03T08:57:47.329Z,18.65
2023-07-03T08:59:50.010Z,18.65
2023-07-03T09:01:52.704Z,18.65
2023-07-03T09:04:13.771Z,18.65
2023-07-03T09:06:34.290Z,18.66
2023-07-03T09:08:48.722Z,18.66
2023-07-03T09:10:51.850Z,18.65
2023-07-03T09:13:13.168Z,18.67
2023-07-03T09:15:30.647Z,18.67
2023-07-03T09:17:34.439Z,18.65
2023-07-03T09:19:39.389Z,18.65
2023-07-03T09:21:42.578Z,18.67
2023-07-03T09:23:53.731Z,18.67
2023-07-03T09:26:13.519Z,18.68
2023-07-03T09:28:16.087Z,18.69
2023-07-03T09:30:18.662Z,18.68
2023-07-03T09:32:30.591Z,18.69
2023-07-03T09:34:59.249Z,18.70
2023-07-03T09:37:04.922Z,18.70
2023-07-03T09:39:13.855Z,18.71
2023-07-03T09:41:26.746Z,18.72
2023-07-03T09:43:31.168Z,18.71
2023-07-03T09:45:36.230Z,18.72
2023-07-03T09:47:39.063Z,18.73
2023-07-03T09:49:41.578Z,18.74
2023-07-03T09:51:44.603Z,18.75
2023-07-03T09:53:47.122Z,18.76
2023-07-03T09:55:56.713Z,18.76
2023-07-03T09:57:59.977Z,18.78
2023-07-03T10:00:14.220Z,18.79
2023-07-03T10:07:09.376Z,18.82
2023-07-03T10:13:43.585Z,18.81
2023-07-03T10:15:46.539Z,18.81
2023-07-03T10:18:27.370Z,18.84
2023-07-03T10:20:43.316Z,18.84
2023-07-03T10:22:46.125Z,18.86
2023-07-03T10:24:50.318Z,18.87
2023-07-03T10:26:59.111Z,18.88
2023-07-03T10:29:26.584Z,18.87
2023-07-03T10:31:39.562Z,18.91
2023-07-03T10:33:48.392Z,18.91
2023-07-03T10:35:52.904Z,18.92
2023-07-03T10:38:00.893Z,18.93
2023-07-03T10:40:17.257Z,18.94
2023-07-03T10:42:29.046Z,18.96
2023-07-03T10:44:34.275Z,18.97
2023-07-03T10:46:49.380Z,18.97
2023-07-03T10:48:53.047Z,18.97
2023-07-03T10:51:25.054Z,18.98
2023-07-03T10:53:48.528Z,19.03
2023-07-03T10:56:12.178Z,19.03
2023-07-03T10:58:26.252Z,19.06
2023-07-03T11:00:51.457Z,19.09
2023-07-03T11:03:27.814Z,19.11
2023-07-03T11:05:38.515Z,19.12
2023-07-03T11:07:57.476Z,19.17
2023-07-03T11:10:15.612Z,19.16
2023-07-03T11:12:27.031Z,19.18
2023-07-03T11:14:38.040Z,19.21
2023-07-03T11:17:09.336Z,19.23
2023-07-03T11:19:57.643Z,19.22
2023-07-03T11:24:32.257Z,19.28
2023-07-03T11:28:51.735Z,19.30
2023-07-03T11:30:55.899Z,19.32
2023-07-03T11:33:01.441Z,19.32
2023-07-03T11:39:51.523Z,19.41
2023-07-03T11:44:22.004Z,19.45
2023-07-03T11:46:28.688Z,19.44
2023-07-03T11:48:39.664Z,19.48
2023-07-03T11:50:42.104Z,19.50
2023-07-03T11:52:48.668Z,19.50
2023-07-03T11:55:01.403Z,19.53
2023-07-03T11:57:31.051Z,19.54
2023-07-03T11:59:37.729Z,19.56
2023-07-03T12:01:40.310Z,19.58
2023-07-03T12:03:55.025Z,19.61
2023-07-03T12:05:58.867Z,19.62
2023-07-03T12:08:02.414Z,19.66
2023-07-03T12:10:20.210Z,19.71
2023-07-03T12:12:28.252Z,19.73
2023-07-03T12:14:58.502Z,19.75
2023-07-03T12:17:01.161Z,19.76
2023-07-03T12:19:11.213Z,19.81
2023-07-03T12:21:14.064Z,19.83
2023-07-03T12:23:32.645Z,19.86
2023-07-03T12:25:35.200Z,19.89
2023-07-03T12:27:40.728Z,19.92
2023-07-03T12:29:47.182Z,19.94
2023-07-03T12:32:08.963Z,19.95
2023-07-03T12:34:11.481Z,19.96
2023-07-03T12:36:20.846Z,20.00
2023-07-03T12:38:23.895Z,20.02
2023-07-03T12:40:27.670Z,20.04
2023-07-03T12:42:30.212Z,20.04
2023-07-03T12:44:32.804Z,20.07
2023-07-03T12:46:40.912Z,20.10
2023-07-03T12:48:44.370Z,20.10
2023-07-03T12:50:58.483Z,20.14
2023-07-03T12:53:02.614Z,20.17
2023-07-03T12:55:14.574Z,20.20
2023-07-03T12:57:18.891Z,20.23
2023-07-03T12:59:25.486Z,20.24
2023-07-03T13:01:29.754Z,20.26
2023-07-03T13:03:32.426Z,20.27
2023-07-03T13:05:37.582Z,20.30
2023-07-03T13:07:44.738Z,20.32
2023-07-03T13:09:47.441Z,20.36
2023-07-03T13:11:50.185Z,20.38
2023-07-03T13:14:08.152Z,20.41
2023-07-03T13:16:18.490Z,20.43
2023-07-03T13:18:24.334Z,20.45
2023-07-03T13:20:29.794Z,20.50
2023-07-03T13:22:34.453Z,20.51
2023-07-03T13:25:39.412Z,20.56
2023-07-03T13:27:42.715Z,20.59
2023-07-03T13:29:45.249Z,20.61
2023-07-03T13:31:52.742Z,20.63
2023-07-03T13:36:41.826Z,20.71
2023-07-03T13:38:44.383Z,20.72
2023-07-03T13:40:48.568Z,20.77
2023-07-03T13:42:58.286Z,20.80
2023-07-03T13:45:00.811Z,20.83
2023-07-03T13:47:03.322Z,20.87
2023-07-03T13:49:07.645Z,20.90
2023-07-03T13:51:10.119Z,20.92
2023-07-03T13:53:12.953Z,20.95
2023-07-03T13:55:15.419Z,20.98
2023-07-03T13:57:17.927Z,21.04
2023-07-03T13:59:20.485Z,21.06
2023-07-03T14:01:26.801Z,21.09
2023-07-03T14:03:29.766Z,21.13
2023-07-03T14:05:32.335Z,21.15
2023-07-03T14:07:34.852Z,21.19
2023-07-03T14:09:37.317Z,21.21
2023-07-03T14:11:39.930Z,21.24
2023-07-03T14:13:45.561Z,21.27
2023-07-03T14:15:48.568Z,21.30
2023-07-03T14:17:51.375Z,21.33
2023-07-03T14:19:54.200Z,21.38
2023-07-03T14:21:56.745Z,21.43
2023-07-03T14:23:59.996Z,21.48
2023-07-03T14:26:07.123Z,21.53
2023-07-03T14:28:09.591Z,21.59
2023-07-03T14:30:13.672Z,21.65
2023-07-03T14:32:16.239Z,21.69
2023-07-03T14:34:18.780Z,21.75
2023-07-03T14:36:21.274Z,21.81
2023-07-03T14:38:24.390Z,21.86
2023-07-03T14:40:27.053Z,21.93
2023-07-03T14:42:29.653Z,21.99
2023-07-03T14:44:32.304Z,22.04
2023-07-03T14:46:34.837Z,22.10
2023-07-03T14:48:37.392Z,22.15
2023-07-03T14:50:39.945Z,22.22
2023-07-03T14:52:47.983Z,22.26
2023-07-03T14:54:50.714Z,22.31
2023-07-03T14:56:53.912Z,22.36
2023-07-03T14:58:56.384Z,22.41
2023-07-03T15:01:03.029Z,22.46
2023-07-03T15:03:05.596Z,22.47
2023-07-03T15:05:08.950Z,22.54
2023-07-03T15:07:11.405Z,22.59
2023-07-03T15:09:13.822Z,22.66
2023-07-03T15:11:18.806Z,22.72
2023-07-03T15:13:22.078Z,22.78
2023-07-03T15:15:24.577Z,22.84
2023-07-03T15:17:27.100Z,22.88
2023-07-03T15:19:29.712Z,22.92
2023-07-03T15:21:33.421Z,22.97
2023-07-03T15:23:36.189Z,22.98
2023-07-03T15:25:38.792Z,23.04
2023-07-03T15:27:41.287Z,23.10
2023-07-03T15:29:43.762Z,23.15
2023-07-03T15:31:46.507Z,23.18
2023-07-03T15:33:49.044Z,23.23
2023-07-03T15:35:56.374Z,23.24
2023-07-03T15:37:59.073Z,23.31
2023-07-03T15:40:01.540Z,23.36
2023-07-03T15:42:04.066Z,23.40
2023-07-03T15:44:06.735Z,23.45
2023-07-03T15:46:17.984Z,23.52
2023-07-03T15:48:20.403Z,23.56
2023-07-03T15:50:22.917Z,23.62
2023-07-03T15:52:25.683Z,23.67
2023-07-03T15:54:28.189Z,23.73
2023-07-03T15:56:31.091Z,23.81
2023-07-03T15:58:39.561Z,23.87
2023-07-03T16:00:42.240Z,23.91
2023-07-03T16:02:44.805Z,23.95
2023-07-03T16:04:47.465Z,24.00
2023-07-03T16:06:50.026Z,24.06
2023-07-03T16:08:56.441Z,24.12
2023-07-03T16:10:58.977Z,24.18
2023-07-03T16:13:01.709Z,24.22
2023-07-03T16:15:04.402Z,24.27
2023-07-03T16:17:06.912Z,24.32
2023-07-03T16:19:09.481Z,24.39
2023-07-03T16:21:14.613Z,24.45
2023-07-03T16:23:17.073Z,24.51
2023-07-03T16:25:19.536Z,24.54
2023-07-03T16:27:22.129Z,24.60
2023-07-03T16:29:24.616Z,24.67
2023-07-03T16:31:29.741Z,24.75
2023-07-03T16:33:34.903Z,24.81
2023-07-03T16:35:37.342Z,24.88
2023-07-03T16:37:40.022Z,24.93
2023-07-03T16:39:42.547Z,25.00
2023-07-03T16:41:45.100Z,25.05
2023-07-03T16:43:49.728Z,25.13
2023-07-03T16:45:52.524Z,25.17
2023-07-03T16:47:55.774Z,25.20
2023-07-03T16:49:58.298Z,25.25
2023-07-03T16:52:00.976Z,25.29
2023-07-03T16:54:03.804Z,25.35
2023-07-03T16:56:12.227Z,25.41
2023-07-03T16:58:14.744Z,25.46
2023-07-03T17:00:17.759Z,25.52
2023-07-03T17:02:20.274Z,25.60
2023-07-03T17:04:23.384Z,25.67
2023-07-03T17:06:36.526Z,25.77
2023-07-03T17:08:39.047Z,25.85
2023-07-03T17:10:41.569Z,25.92
2023-07-03T17:12:44.378Z,26.01
2023-07-03T17:14:46.880Z,26.08
2023-07-03T17:16:49.441Z,26.14
2023-07-03T17:18:51.980Z,26.20
2023-07-03T17:20:54.512Z,26.27
2023-07-03T17:22:57.019Z,26.31
2023-07-03T17:24:59.514Z,26.35
2023-07-03T17:27:01.976Z,26.41
2023-07-03T17:29:08.524Z,26.47
2023-07-03T17:31:11.450Z,26.53
2023-07-03T17:33:14.100Z,26.60
2023-07-03T17:35:17.283Z,26.67
2023-07-03T17:37:19.797Z,26.76
2023-07-03T17:39:22.308Z,26.82
2023-07-03T17:41:25.084Z,26.87
2023-07-03T17:43:27.641Z,26.92
2023-07-03T17:45:30.111Z,27.00
2023-07-03T17:47:32.920Z,27.06
2023-07-03T17:49:35.472Z,27.14
2023-07-03T17:51:37.983Z,27.21
2023-07-03T17:53:42.015Z,27.29
2023-07-03T17:55:45.221Z,27.39
2023-07-03T17:57:47.770Z,27.50
2023-07-03T17:59:50.272Z,27.60
2023-07-03T18:01:52.850Z,27.67
2023-07-03T18:03:55.570Z,27.77
2023-07-03T18:05:58.736Z,27.86
2023-07-03T18:08:01.858Z,27.93
2023-07-03T18:10:04.653Z,27.99
2023-07-03T18:12:07.731Z,28.02
2023-07-03T18:14:10.556Z,28.07
2023-07-03T18:16:13.236Z,28.14
2023-07-03T18:18:15.909Z,28.22
2023-07-03T18:20:18.385Z,28.29
2023-07-03T18:22:20.891Z,28.37
2023-07-03T18:24:23.481Z,28.44
2023-07-03T18:26:25.977Z,28.53
2023-07-03T18:28:28.605Z,28.60
2023-07-03T18:30:31.719Z,28.69
2023-07-03T18:32:35.618Z,28.76
2023-07-03T18:34:38.189Z,28.76
2023-07-03T18:36:41.150Z,28.81
2023-07-03T18:38:43.949Z,28.83
2023-07-03T18:40:46.545Z,28.86
2023-07-03T18:42:49.097Z,28.86
2023-07-03T18:44:51.568Z,28.87
2023-07-03T18:46:54.074Z,28.91
2023-07-03T18:48:56.730Z,28.92
2023-07-03T18:50:59.188Z,28.95
2023-07-03T18:53:01.680Z,28.93
2023-07-03T18:55:04.660Z,28.94
2023-07-03T18:57:07.191Z,28.96
2023-07-03T18:59:10.092Z,29.00
2023-07-03T19:01:16.793Z,29.01
2023-07-03T19:03:20.761Z,29.06
2023-07-03T19:05:23.226Z,29.07
2023-07-03T19:07:25.790Z,29.05
2023-07-03T19:09:28.239Z,29.08
2023-07-03T19:11:31.305Z,29.15
2023-07-03T19:13:34.415Z,29.20
2023-07-03T19:15:37.032Z,29.23
2023-07-03T19:17:40.005Z,29.27
2023-07-03T19:19:42.578Z,29.34
2023-07-03T19:21:45.129Z,29.40
2023-07-03T19:23:47.711Z,29.51
2023-07-03T19:25:54.785Z,29.60
2023-07-03T19:27:57.608Z,29.70
2023-07-03T19:30:00.611Z,29.79
2023-07-03T19:32:03.168Z,29.86
2023-07-03T19:34:05.708Z,29.92
2023-07-03T19:36:18.710Z,29.97
2023-07-03T19:38:21.228Z,30.01
2023-07-03T19:40:23.834Z,30.03
2023-07-03T19:42:26.398Z,30.04
2023-07-03T19:44:28.997Z,30.02
2023-07-03T19:46:31.749Z,29.99
2023-07-03T19:48:35.313Z,29.98
2023-07-03T19:50:39.591Z,29.98
2023-07-03T19:52:42.094Z,30.00
2023-07-03T19:54:44.546Z,30.00
2023-07-03T19:56:47.162Z,30.11
2023-07-03T19:58:49.954Z,30.15
2023-07-03T20:00:57.449Z,30.17
2023-07-03T20:03:00.436Z,30.21
2023-07-03T20:05:03.012Z,30.28
2023-07-03T20:07:05.607Z,30.29
2023-07-03T20:09:08.226Z,30.33
2023-07-03T20:11:10.888Z,30.33
2023-07-03T20:13:14.796Z,30.34
2023-07-03T20:15:17.781Z,30.32
2023-07-03T20:17:20.307Z,30.32
2023-07-03T20:19:22.991Z,30.35
2023-07-03T20:21:26.419Z,30.37
2023-07-03T20:23:28.988Z,30.42
2023-07-03T20:25:31.756Z,30.40
2023-07-03T20:27:34.275Z,30.42
2023-07-03T20:29:37.314Z,30.42
2023-07-03T20:31:39.782Z,30.37
2023-07-03T20:33:42.566Z,30.35
2023-07-03T20:35:45.258Z,30.29
2023-07-03T20:37:47.765Z,30.25
2023-07-03T20:39:50.338Z,30.21
2023-07-03T20:41:53.043Z,30.14
2023-07-03T20:43:57.002Z,30.08
2023-07-03T20:46:03.022Z,30.03
2023-07-03T20:48:05.892Z,30.00
2023-07-03T20:50:11.559Z,29.94
2023-07-03T20:52:15.989Z,29.90
2023-07-03T20:54:34.676Z,29.85
2023-07-03T20:56:39.438Z,29.78
2023-07-03T20:58:43.602Z,29.75
2023-07-03T21:00:46.181Z,29.72
2023-07-03T21:02:48.745Z,29.66
2023-07-03T21:04:51.311Z,29.62
2023-07-03T21:06:57.090Z,29.56
2023-07-03T21:09:00.535Z,29.52
2023-07-03T21:11:03.067Z,29.49
2023-07-03T21:13:05.670Z,29.45
2023-07-03T21:15:11.563Z,29.40
2023-07-03T21:17:14.216Z,29.38
2023-07-03T21:19:16.692Z,29.33
2023-07-03T21:21:20.621Z,29.30
2023-07-03T21:23:23.462Z,29.28
2023-07-03T21:25:26.061Z,29.24
2023-07-03T21:27:30.214Z,29.19
2023-07-03T21:29:33.421Z,29.16
2023-07-03T21:31:37.446Z,29.12
2023-07-03T21:33:40.442Z,29.10
2023-07-03T21:35:42.960Z,29.05
2023-07-03T21:37:45.428Z,29.03
2023-07-03T21:39:47.868Z,29.00
2023-07-03T21:41:50.438Z,28.97
2023-07-03T21:43:55.184Z,28.94
2023-07-03T21:46:06.236Z,28.90
2023-07-03T21:48:08.773Z,28.86
2023-07-03T21:50:11.675Z,28.83
2023-07-03T21:52:14.121Z,28.79
2023-07-03T21:54:20.455Z,28.76
2023-07-03T21:56:34.231Z,28.74
2023-07-03T21:58:38.198Z,28.71
2023-07-03T22:00:40.652Z,28.68
2023-07-03T22:02:43.190Z,28.66
2023-07-03T22:04:45.726Z,28.64
2023-07-03T22:06:48.235Z,28.61
2023-07-03T22:08:50.934Z,28.60
2023-07-03T22:10:53.949Z,28.57
2023-07-03T22:12:56.849Z,28.56
2023-07-03T22:14:59.327Z,28.51
2023-07-03T22:17:01.854Z,28.48
2023-07-03T22:19:04.474Z,28.44
2023-07-03T22:21:07.006Z,28.42
2023-07-03T22:23:10.914Z,28.42
2023-07-03T22:25:13.579Z,28.43
2023-07-03T22:27:16.135Z,28.52
2023-07-03T22:29:18.761Z,28.55
2023-07-03T22:31:21.885Z,28.58
2023-07-03T22:33:25.077Z,28.60
2023-07-03T22:35:27.565Z,28.69
2023-07-03T22:37:30.058Z,28.67
2023-07-03T22:39:32.541Z,28.66
2023-07-03T22:41:35.012Z,28.63
2023-07-03T22:43:38.487Z,28.63
2023-07-03T22:45:40.927Z,28.60
2023-07-03T22:47:43.575Z,28.56
2023-07-03T22:49:48.910Z,28.54
2023-07-03T22:51:53.406Z,28.52
2023-07-03T22:53:55.875Z,28.49
2023-07-03T22:55:58.448Z,28.44
2023-07-03T22:58:01.006Z,28.40
2023-07-03T23:00:11.767Z,28.37
2023-07-03T23:02:15.040Z,28.33
2023-07-03T23:04:18.353Z,28.32
2023-07-03T23:06:21.884Z,28.28
2023-07-03T23:08:25.802Z,28.24
2023-07-03T23:10:28.299Z,28.20
2023-07-03T23:12:30.840Z,28.14
2023-07-03T23:14:33.319Z,28.09
2023-07-03T23:16:36.118Z,28.06
2023-07-03T23:18:40.336Z,28.04
2023-07-03T23:20:43.154Z,28.00
2023-07-03T23:22:46.037Z,27.95
2023-07-03T23:24:48.540Z,27.88
2023-07-03T23:26:54.074Z,27.87
2023-07-03T23:28:56.533Z,27.83
2023-07-03T23:31:03.912Z,27.79
2023-07-03T23:33:06.610Z,27.76
2023-07-03T23:35:12.491Z,27.75
2023-07-03T23:37:18.212Z,27.70
2023-07-03T23:39:20.873Z,27.68
2023-07-03T23:41:23.378Z,27.63
2023-07-03T23:43:26.460Z,27.59
2023-07-03T23:45:28.977Z,27.57
2023-07-03T23:47:31.517Z,27.51
2023-07-03T23:49:34.330Z,27.47
2023-07-03T23:51:38.652Z,27.40
2023-07-03T23:53:44.398Z,27.37
2023-07-03T23:55:46.925Z,27.33
2023-07-03T23:57:49.430Z,27.31
2023-07-03T23:59:51.907Z,27.29
